Terminal Aerodrome Forecast
Issued by NWS

Home | Current Version | Previous Version | Text Only | Print | Product List | Glossary On
Versions: 1 2 3 4 5 6 7 8 9 10 11 12 13 14 15 16 17 18 19 20 21 22 23 24 25 26
167
FTUS43 KSGF 221301 AAA
TAFJLN
TAF AMD
KJLN 221301Z 2213/2312 16007KT 3SM BR SKC
      TEMPO 2213/2215 1/4SM FG BKN002
     FM221500 20008KT 5SM BR FEW080
     FM221600 21010KT P6SM FEW200
     FM230900 15005KT P6SM SCT250=

USA.gov is the U.S. government's official web portal to all federal, state and local government web resources and services.